createdAt,value
2018-11-27T00:00:18.140Z,19.25
2018-11-27T00:02:46.614Z,20.05
2018-11-27T00:05:15.074Z,17.73
2018-11-27T00:07:43.501Z,15.60
2018-11-27T00:10:11.966Z,17.10
2018-11-27T00:12:40.392Z,20.10
2018-11-27T00:15:10.436Z,18.15
2018-11-27T00:17:38.929Z,20.17
2018-11-27T00:20:12.248Z,21.23
2018-11-27T00:22:40.820Z,19.90
2018-11-27T00:25:11.314Z,17.65
2018-11-27T00:27:39.750Z,18.42
2018-11-27T00:30:10.518Z,19.50
2018-11-27T00:32:39.061Z,18.73
2018-11-27T00:35:09.004Z,19.27
2018-11-27T00:37:37.361Z,21.23
2018-11-27T00:40:08.186Z,16.73
2018-11-27T00:42:36.584Z,15.30
2018-11-27T00:45:06.830Z,14.85
2018-11-27T00:47:35.242Z,13.98
2018-11-27T00:50:04.028Z,12.30
2018-11-27T00:52:32.576Z,15.15
2018-11-27T00:55:00.985Z,13.93
2018-11-27T00:57:29.433Z,14.20
2018-11-27T00:59:57.873Z,12.47
2018-11-27T01:02:26.312Z,12.43
2018-11-27T01:04:54.706Z,12.43
2018-11-27T01:07:23.120Z,12.37
2018-11-27T01:09:51.536Z,12.90
2018-11-27T01:12:19.935Z,12.82
2018-11-27T01:14:48.394Z,11.85
2018-11-27T01:17:16.821Z,13.38
2018-11-27T01:19:45.247Z,13.68
2018-11-27T01:22:13.693Z,13.45
2018-11-27T01:24:42.138Z,14.53
2018-11-27T01:27:10.582Z,15.20
2018-11-27T01:29:39.017Z,13.88
2018-11-27T01:32:07.394Z,15.60
2018-11-27T01:34:35.805Z,14.40
2018-11-27T01:37:04.241Z,15.28
2018-11-27T01:39:32.684Z,14.43
2018-11-27T01:42:01.108Z,16.27
2018-11-27T01:44:30.399Z,15.58
2018-11-27T01:46:58.924Z,15.38
2018-11-27T01:49:27.380Z,15.75
2018-11-27T01:51:55.826Z,17.10
2018-11-27T01:54:24.273Z,15.28
2018-11-27T01:56:52.692Z,14.13
2018-11-27T01:59:21.118Z,16.32
2018-11-27T02:01:49.590Z,16.40
2018-11-27T02:04:18.283Z,16.23
2018-11-27T02:06:46.709Z,16.15
2018-11-27T02:09:15.436Z,16.23
2018-11-27T02:11:43.824Z,15.93
2018-11-27T02:14:12.245Z,15.18
2018-11-27T02:16:40.712Z,14.25
2018-11-27T02:19:09.161Z,14.18
2018-11-27T02:21:37.735Z,13.05
2018-11-27T02:24:06.345Z,13.13
2018-11-27T02:26:34.785Z,13.13
2018-11-27T02:29:03.208Z,14.00
2018-11-27T02:31:31.585Z,14.03
2018-11-27T02:34:00.032Z,12.07
2018-11-27T02:36:28.514Z,12.55
2018-11-27T02:38:56.970Z,12.33
2018-11-27T02:41:25.361Z,13.60
2018-11-27T02:43:53.774Z,12.47
2018-11-27T02:46:22.215Z,12.40
2018-11-27T02:48:50.537Z,11.95
2018-11-27T02:51:18.993Z,11.78
2018-11-27T02:53:47.427Z,10.53
2018-11-27T02:56:15.828Z,11.80
2018-11-27T02:58:44.252Z,11.40
2018-11-27T03:01:12.659Z,11.22
2018-11-27T03:03:41.080Z,13.03
2018-11-27T03:06:09.506Z,11.97
2018-11-27T03:08:37.913Z,11.65
2018-11-27T03:11:06.410Z,12.60
2018-11-27T03:13:34.814Z,13.68
2018-11-27T03:16:03.219Z,14.38
2018-11-27T03:18:31.634Z,13.48
2018-11-27T03:21:00.165Z,15.20
2018-11-27T03:23:28.547Z,14.47
2018-11-27T03:25:56.917Z,14.30
2018-11-27T03:28:25.286Z,15.23
2018-11-27T03:30:53.669Z,16.02
2018-11-27T03:33:22.108Z,16.65
2018-11-27T03:35:50.345Z,15.60
2018-11-27T03:38:18.809Z,16.05
2018-11-27T03:40:47.189Z,15.05
2018-11-27T03:43:15.606Z,14.80
2018-11-27T03:45:44.028Z,14.40
2018-11-27T03:48:12.390Z,14.10
2018-11-27T03:50:40.761Z,15.25
2018-11-27T03:53:09.132Z,14.07
2018-11-27T03:55:37.692Z,15.20
2018-11-27T03:58:06.097Z,15.93
2018-11-27T04:00:34.525Z,14.70
2018-11-27T04:03:06.825Z,15.43
2018-11-27T04:05:35.242Z,14.60
2018-11-27T04:08:03.659Z,16.65
2018-11-27T04:10:32.008Z,16.62
2018-11-27T04:13:00.408Z,15.60
2018-11-27T04:15:28.784Z,15.60
2018-11-27T04:17:57.241Z,14.63
2018-11-27T04:20:25.630Z,14.60
2018-11-27T04:22:54.038Z,15.65
2018-11-27T04:25:22.473Z,14.47
2018-11-27T04:27:51.077Z,16.27
2018-11-27T04:30:22.327Z,16.37
2018-11-27T04:32:50.843Z,15.85
2018-11-27T04:35:20.144Z,18.65
2018-11-27T04:37:48.776Z,19.50
2018-11-27T04:40:18.125Z,17.37
2018-11-27T04:42:46.585Z,15.55
2018-11-27T04:45:21.989Z,16.27
2018-11-27T04:47:50.446Z,17.15
2018-11-27T04:50:19.168Z,14.58
2018-11-27T04:52:47.640Z,15.53
2018-11-27T04:55:17.933Z,15.63
2018-11-27T04:57:47.250Z,16.17
2018-11-27T05:00:18.553Z,16.37
2018-11-27T05:02:46.956Z,17.12
2018-11-27T05:05:15.377Z,14.90
2018-11-27T05:07:43.823Z,15.98
2018-11-27T05:10:16.325Z,17.35
2018-11-27T05:12:44.876Z,17.25
2018-11-27T05:15:17.015Z,16.75
2018-11-27T05:17:48.040Z,14.70
2018-11-27T05:20:14.808Z,16.52
2018-11-27T05:22:43.201Z,18.57
2018-11-27T05:25:14.336Z,17.10
2018-11-27T05:27:44.731Z,17.60
2018-11-27T05:30:15.169Z,16.10
2018-11-27T05:32:43.621Z,18.70
2018-11-27T05:35:13.120Z,16.00
2018-11-27T05:37:42.234Z,17.25
2018-11-27T05:40:13.940Z,19.37
2018-11-27T05:42:42.616Z,17.90
2018-11-27T05:45:18.620Z,17.15
2018-11-27T05:47:47.048Z,18.92
2018-11-27T05:50:16.407Z,17.65
2018-11-27T05:52:44.856Z,19.02
2018-11-27T05:55:13.732Z,17.10
2018-11-27T05:57:42.546Z,17.98
2018-11-27T06:00:16.923Z,17.75
2018-11-27T06:02:45.652Z,17.50
2018-11-27T06:05:16.010Z,16.70
2018-11-27T06:07:44.453Z,18.80
2018-11-27T06:10:13.926Z,16.73
2018-11-27T06:12:43.437Z,16.25
2018-11-27T06:15:14.819Z,18.67
2018-11-27T06:17:43.393Z,16.77
2018-11-27T06:20:13.208Z,16.62
2018-11-27T06:22:41.648Z,16.60
2018-11-27T06:25:16.929Z,15.95
2018-11-27T06:27:45.907Z,15.80
2018-11-27T06:30:18.533Z,15.40
2018-11-27T06:32:47.050Z,15.38
2018-11-27T06:35:19.601Z,15.93
2018-11-27T06:37:48.016Z,15.03
2018-11-27T06:40:18.532Z,16.95
2018-11-27T06:42:46.983Z,17.60
2018-11-27T06:45:16.421Z,16.25
2018-11-27T06:47:45.385Z,18.73
2018-11-27T06:50:14.642Z,18.65
2018-11-27T06:52:43.118Z,16.73
2018-11-27T06:55:14.493Z,16.32
2018-11-27T06:57:43.144Z,17.92
2018-11-27T07:00:15.482Z,18.60
2018-11-27T07:02:43.881Z,19.23
2018-11-27T07:05:12.966Z,18.05
2018-11-27T07:07:41.707Z,18.40
2018-11-27T07:10:16.474Z,17.02
2018-11-27T07:12:45.107Z,17.90
2018-11-27T07:15:16.024Z,17.60
2018-11-27T07:17:44.482Z,18.25
2018-11-27T07:20:13.300Z,17.23
2018-11-27T07:22:41.795Z,18.12
2018-11-27T07:25:13.033Z,17.07
2018-11-27T07:27:42.633Z,15.80
2018-11-27T07:30:20.357Z,17.30
2018-11-27T07:32:48.502Z,14.95
2018-11-27T07:35:17.587Z,15.88
2018-11-27T07:37:46.235Z,17.48
2018-11-27T07:40:18.648Z,17.17
2018-11-27T07:42:47.268Z,17.17
2018-11-27T07:45:17.633Z,16.37
2018-11-27T07:47:46.000Z,16.90
2018-11-27T07:50:15.104Z,16.05
2018-11-27T07:52:43.517Z,17.20
2018-11-27T07:55:12.789Z,15.28
2018-11-27T07:57:41.330Z,16.05
2018-11-27T08:00:13.716Z,17.15
2018-11-27T08:02:42.680Z,15.88
2018-11-27T08:05:12.414Z,16.20
2018-11-27T08:07:41.553Z,18.12
2018-11-27T08:10:13.355Z,18.02
2018-11-27T08:12:41.792Z,17.70
2018-11-27T08:15:14.140Z,17.87
2018-11-27T08:17:42.818Z,18.65
2018-11-27T08:20:18.292Z,18.10
2018-11-27T08:22:46.685Z,17.02
2018-11-27T08:25:15.569Z,17.60
2018-11-27T08:27:44.012Z,18.85
2018-11-27T08:30:16.389Z,19.17
2018-11-27T08:32:44.896Z,17.80
2018-11-27T08:35:16.959Z,16.77
2018-11-27T08:37:45.928Z,18.32
2018-11-27T08:40:15.287Z,20.00
2018-11-27T08:42:43.729Z,21.93
2018-11-27T08:45:13.182Z,18.17
2018-11-27T08:47:41.710Z,18.30
2018-11-27T08:50:12.147Z,18.57
2018-11-27T08:52:40.619Z,17.55
2018-11-27T08:55:10.525Z,18.23
2018-11-27T08:57:39.126Z,17.35
2018-11-27T09:00:12.363Z,16.95
2018-11-27T09:02:40.800Z,16.60
2018-11-27T09:05:09.215Z,15.35
2018-11-27T09:07:38.073Z,16.52
2018-11-27T09:10:09.742Z,18.65
2018-11-27T09:12:38.161Z,17.73
2018-11-27T09:15:07.513Z,17.15
2018-11-27T09:17:35.968Z,17.15
2018-11-27T09:20:04.678Z,17.27
2018-11-27T09:22:33.122Z,15.28
2018-11-27T09:25:01.559Z,15.43
2018-11-27T09:27:29.979Z,15.70
2018-11-27T09:29:58.374Z,16.25
2018-11-27T09:32:26.792Z,16.93
2018-11-27T09:34:55.204Z,17.65
2018-11-27T09:37:23.726Z,16.57
2018-11-27T09:39:52.118Z,17.65
2018-11-27T09:42:20.606Z,16.57
2018-11-27T09:44:48.976Z,16.90
2018-11-27T09:47:17.378Z,17.80
2018-11-27T09:49:45.864Z,18.20
2018-11-27T09:52:14.294Z,17.50
2018-11-27T09:54:42.713Z,18.00
2018-11-27T09:57:11.143Z,19.55
2018-11-27T09:59:39.582Z,18.07
2018-11-27T10:02:08.111Z,18.87
2018-11-27T10:04:36.594Z,17.52
2018-11-27T10:07:05.001Z,17.90
2018-11-27T10:09:39.992Z,15.48
2018-11-27T10:12:07.493Z,19.10
2018-11-27T10:14:35.911Z,17.02
2018-11-27T10:17:04.380Z,16.12
2018-11-27T10:19:32.823Z,16.97
2018-11-27T10:22:01.256Z,17.60
2018-11-27T10:24:29.698Z,17.77
2018-11-27T10:26:58.161Z,18.02
2018-11-27T10:29:26.604Z,15.18
2018-11-27T10:31:55.028Z,15.23
2018-11-27T10:34:23.472Z,14.75
2018-11-27T10:36:51.960Z,15.78
2018-11-27T10:39:20.398Z,14.40
2018-11-27T10:41:48.828Z,14.55
2018-11-27T10:44:17.298Z,12.98
2018-11-27T10:46:45.760Z,14.05
2018-11-27T10:49:14.307Z,13.32
2018-11-27T10:51:42.790Z,14.07
2018-11-27T10:54:11.204Z,12.33
2018-11-27T10:56:39.656Z,10.93
2018-11-27T10:59:08.257Z,10.70
2018-11-27T11:01:42.830Z,10.88
2018-11-27T11:07:08.300Z,9.85
2018-11-27T11:09:36.782Z,9.73
2018-11-27T11:12:05.196Z,9.65
2018-11-27T11:14:33.607Z,8.93
2018-11-27T11:17:03.022Z,9.95
2018-11-27T11:19:31.501Z,10.38
2018-11-27T11:21:59.968Z,9.73
2018-11-27T11:24:28.518Z,10.00
2018-11-27T11:26:57.010Z,10.30
2018-11-27T11:29:25.438Z,10.35
2018-11-27T11:31:53.860Z,10.98
2018-11-27T11:34:22.454Z,11.45
2018-11-27T11:36:50.960Z,10.63
2018-11-27T11:39:19.519Z,9.95
2018-11-27T11:41:47.952Z,11.65
2018-11-27T11:44:16.881Z,11.57
2018-11-27T11:46:45.523Z,12.25
2018-11-27T11:49:14.001Z,11.75
2018-11-27T11:51:42.402Z,12.83
2018-11-27T11:54:11.083Z,14.28
2018-11-27T11:56:39.549Z,12.55
2018-11-27T11:59:07.993Z,11.33
2018-11-27T12:01:36.402Z,12.18
2018-11-27T12:04:05.125Z,11.97
2018-11-27T12:06:33.666Z,12.95
2018-11-27T12:09:02.232Z,12.13
2018-11-27T12:11:30.689Z,11.85
2018-11-27T12:13:59.197Z,12.20
2018-11-27T12:16:28.693Z,12.70
2018-11-27T12:18:56.236Z,12.55
2018-11-27T12:21:24.686Z,12.70
2018-11-27T12:23:53.067Z,11.00
2018-11-27T12:26:21.513Z,10.70
2018-11-27T12:28:49.956Z,13.05
2018-11-27T12:31:18.400Z,12.43
2018-11-27T12:33:46.909Z,12.43
2018-11-27T12:36:15.438Z,12.23
2018-11-27T12:38:43.958Z,11.77
2018-11-27T12:41:12.440Z,10.80
2018-11-27T12:43:40.889Z,10.58
2018-11-27T12:46:09.369Z,11.00
2018-11-27T12:48:37.812Z,11.22
2018-11-27T12:51:07.489Z,11.18
2018-11-27T12:53:35.979Z,12.20
2018-11-27T12:56:04.714Z,12.43
2018-11-27T12:58:34.062Z,11.88
2018-11-27T13:01:03.282Z,11.28
2018-11-27T13:03:32.017Z,11.90
2018-11-27T13:06:00.473Z,11.78
2018-11-27T13:08:29.730Z,11.57
2018-11-27T13:10:58.488Z,10.95
2018-11-27T13:13:27.884Z,12.28
2018-11-27T13:15:57.560Z,11.18
2018-11-27T13:18:27.273Z,14.18
2018-11-27T13:20:57.249Z,13.03
2018-11-27T13:23:26.859Z,12.28
2018-11-27T13:25:56.523Z,11.95
2018-11-27T13:28:25.832Z,11.88
2018-11-27T13:31:04.671Z,12.40
2018-11-27T13:33:36.384Z,13.50
2018-11-27T13:36:06.497Z,13.62
2018-11-27T13:38:35.221Z,13.05
2018-11-27T13:41:04.825Z,13.58
2018-11-27T13:43:34.415Z,14.00
2018-11-27T13:46:04.678Z,14.78
2018-11-27T13:48:34.190Z,13.15
2018-11-27T13:51:03.840Z,14.05
2018-11-27T13:53:33.360Z,14.53
2018-11-27T13:56:02.754Z,13.70
2018-11-27T13:58:32.152Z,14.40
2018-11-27T14:01:01.779Z,14.90
2018-11-27T14:03:31.202Z,14.03
2018-11-27T14:06:00.627Z,13.78
2018-11-27T14:08:30.093Z,15.03
2018-11-27T14:10:59.568Z,17.30
2018-11-27T14:13:30.217Z,15.98
2018-11-27T14:15:59.839Z,13.70
2018-11-27T14:18:29.390Z,14.85
2018-11-27T14:20:58.937Z,14.53
2018-11-27T14:23:28.475Z,13.95
2018-11-27T14:25:56.965Z,13.70
2018-11-27T14:28:25.460Z,16.85
2018-11-27T14:30:53.905Z,16.05
2018-11-27T14:33:22.337Z,14.43
2018-11-27T14:35:50.792Z,15.88
2018-11-27T14:38:19.385Z,14.98
2018-11-27T14:40:47.835Z,16.07
2018-11-27T14:43:16.270Z,15.43
2018-11-27T14:45:44.754Z,13.88
2018-11-27T14:48:13.213Z,14.90
2018-11-27T14:50:41.627Z,14.73
2018-11-27T14:53:10.069Z,14.03
2018-11-27T14:55:38.508Z,15.50
2018-11-27T14:58:07.035Z,13.80
2018-11-27T15:00:35.690Z,15.55
2018-11-27T15:03:04.004Z,16.65
2018-11-27T15:05:34.366Z,14.05
2018-11-27T15:08:03.380Z,15.48
2018-11-27T15:10:31.764Z,14.30
2018-11-27T15:13:00.107Z,14.35
2018-11-27T15:15:28.588Z,14.90
2018-11-27T15:17:56.902Z,15.48
2018-11-27T15:20:25.296Z,16.05
2018-11-27T15:22:53.637Z,13.78
2018-11-27T15:25:22.037Z,15.30
2018-11-27T15:27:50.413Z,15.53
2018-11-27T15:30:24.622Z,16.90
2018-11-27T15:32:55.261Z,15.18
2018-11-27T15:35:23.600Z,15.68
2018-11-27T15:37:52.099Z,15.20
2018-11-27T15:40:26.478Z,13.50
2018-11-27T15:42:54.817Z,15.58
2018-11-27T15:45:27.018Z,16.07
2018-11-27T15:47:55.347Z,14.43
2018-11-27T15:50:23.703Z,15.05
2018-11-27T15:52:52.025Z,14.50
2018-11-27T15:55:28.479Z,16.02
2018-11-27T15:58:04.912Z,13.72
2018-11-27T16:00:33.262Z,14.93
2018-11-27T16:03:01.635Z,16.02
2018-11-27T16:05:29.981Z,14.75
2018-11-27T16:07:58.356Z,16.85
2018-11-27T16:10:26.723Z,15.28
2018-11-27T16:12:55.077Z,15.72
2018-11-27T16:15:23.528Z,16.85
2018-11-27T16:17:51.909Z,15.80
2018-11-27T16:20:21.263Z,15.70
2018-11-27T16:22:51.549Z,15.50
2018-11-27T16:25:21.836Z,14.63
2018-11-27T16:27:50.278Z,16.40
2018-11-27T16:30:25.308Z,16.20
2018-11-27T16:32:53.801Z,14.73
2018-11-27T16:35:22.319Z,16.15
2018-11-27T16:38:00.293Z,14.78
2018-11-27T16:40:29.790Z,15.70
2018-11-27T16:42:58.228Z,16.77
2018-11-27T16:45:26.772Z,16.40
2018-11-27T16:47:55.323Z,15.80
2018-11-27T16:50:24.021Z,15.32
2018-11-27T16:52:52.493Z,14.45
2018-11-27T16:55:21.913Z,16.05
2018-11-27T16:57:50.477Z,16.25
2018-11-27T17:00:23.584Z,16.30
2018-11-27T17:02:52.954Z,16.90
2018-11-27T17:05:42.588Z,17.45
2018-11-27T17:08:11.186Z,17.45
2018-11-27T17:10:43.022Z,17.32
2018-11-27T17:14:03.331Z,16.05
2018-11-27T17:16:32.657Z,17.25
2018-11-27T17:19:01.113Z,17.10
2018-11-27T17:21:35.808Z,16.25
2018-11-27T17:24:17.533Z,17.32
2018-11-27T17:26:46.016Z,15.95
2018-11-27T17:29:14.520Z,15.10
2018-11-27T17:31:43.009Z,17.30
2018-11-27T17:34:13.701Z,18.12
2018-11-27T17:36:51.724Z,16.55
2018-11-27T17:39:33.815Z,18.15
2018-11-27T17:42:02.989Z,16.37
2018-11-27T17:44:37.736Z,16.25
2018-11-27T17:47:16.149Z,14.75
2018-11-27T17:49:48.142Z,16.20
2018-11-27T17:52:34.139Z,16.32
2018-11-27T17:55:05.618Z,16.23
2018-11-27T17:57:39.267Z,16.90
2018-11-27T18:00:23.523Z,18.62
2018-11-27T18:06:22.713Z,17.20
2018-11-27T18:08:51.161Z,18.10
2018-11-27T18:11:19.655Z,17.85
2018-11-27T18:13:48.185Z,18.73
2018-11-27T18:16:16.860Z,18.30
2018-11-27T18:18:45.313Z,18.07
2018-11-27T18:21:13.758Z,17.00
2018-11-27T18:23:42.192Z,17.35
2018-11-27T18:26:10.646Z,19.10
2018-11-27T18:28:39.157Z,17.42
2018-11-27T18:31:07.785Z,17.87
2018-11-27T18:33:36.300Z,16.35
2018-11-27T18:36:04.808Z,16.30
2018-11-27T18:38:33.232Z,14.78
2018-11-27T18:41:01.673Z,16.10
2018-11-27T18:43:30.100Z,15.28
2018-11-27T18:45:58.601Z,16.20
2018-11-27T18:48:27.037Z,17.30
2018-11-27T18:50:55.548Z,17.52
2018-11-27T18:53:23.958Z,17.25
2018-11-27T18:55:52.280Z,16.35
2018-11-27T18:58:20.697Z,15.80
2018-11-27T19:00:49.125Z,15.03
2018-11-27T19:03:17.585Z,13.80
2018-11-27T19:05:46.033Z,14.73
2018-11-27T19:08:14.492Z,14.45
2018-11-27T19:10:42.879Z,13.72
2018-11-27T19:13:11.213Z,13.43
2018-11-27T19:15:44.274Z,12.40
2018-11-27T19:18:16.766Z,13.22
2018-11-27T19:20:45.268Z,11.53
2018-11-27T19:23:13.701Z,12.35
2018-11-27T19:25:42.188Z,12.18
2018-11-27T19:28:10.702Z,11.12
2018-11-27T19:30:40.153Z,11.85
2018-11-27T19:33:10.549Z,11.70
2018-11-27T19:35:40.436Z,10.60
2018-11-27T19:38:10.468Z,11.38
2018-11-27T19:40:40.036Z,11.22
2018-11-27T19:43:09.514Z,11.40
2018-11-27T19:45:38.186Z,10.03
2018-11-27T19:48:07.789Z,11.35
2018-11-27T19:50:36.421Z,10.40
2018-11-27T19:53:11.736Z,10.55
2018-11-27T19:55:34.422Z,10.23
2018-11-27T19:58:02.835Z,10.60
2018-11-27T20:00:31.285Z,10.60
2018-11-27T20:02:59.673Z,9.83
2018-11-27T20:05:29.040Z,9.78
2018-11-27T20:07:57.412Z,9.75
2018-11-27T20:10:25.761Z,10.13
2018-11-27T20:12:54.090Z,9.98
2018-11-27T20:15:26.355Z,10.80
2018-11-27T20:17:55.145Z,12.20
2018-11-27T20:20:24.500Z,10.82
2018-11-27T20:22:53.365Z,12.23
2018-11-27T20:25:22.660Z,10.82
2018-11-27T20:27:51.440Z,11.28
2018-11-27T20:30:23.734Z,10.38
2018-11-27T20:32:55.152Z,11.65
2018-11-27T20:35:23.587Z,11.08
2018-11-27T20:37:52.723Z,13.30
2018-11-27T20:40:21.166Z,13.35
2018-11-27T20:42:49.707Z,14.50
2018-11-27T20:45:20.990Z,14.05
2018-11-27T20:47:52.379Z,16.95
2018-11-27T20:50:21.744Z,14.73
2018-11-27T20:52:50.080Z,14.30
2018-11-27T20:55:18.833Z,15.48
2018-11-27T20:57:49.063Z,13.30
2018-11-27T21:00:22.070Z,15.25
2018-11-27T21:02:51.830Z,14.95
2018-11-27T21:05:20.317Z,14.05
2018-11-27T21:07:48.767Z,14.55
2018-11-27T21:10:17.257Z,15.20
2018-11-27T21:12:45.813Z,13.08
2018-11-27T21:15:17.038Z,16.32
2018-11-27T21:17:45.472Z,14.30
2018-11-27T21:20:14.654Z,14.53
2018-11-27T21:22:43.175Z,15.75
2018-11-27T21:25:12.704Z,15.55
2018-11-27T21:27:41.179Z,15.83
2018-11-27T21:30:13.172Z,15.18
2018-11-27T21:32:41.585Z,16.00
2018-11-27T21:35:11.287Z,15.48
2018-11-27T21:37:39.697Z,16.35
2018-11-27T21:40:09.659Z,15.18
2018-11-27T21:42:38.094Z,15.15
2018-11-27T21:45:09.714Z,16.37
2018-11-27T21:47:38.119Z,15.70
2018-11-27T21:50:08.944Z,14.10
2018-11-27T21:52:37.397Z,15.85
2018-11-27T21:55:09.483Z,14.60
2018-11-27T21:57:37.973Z,14.78
2018-11-27T22:00:15.818Z,14.80
2018-11-27T22:02:44.249Z,14.23
2018-11-27T22:05:13.000Z,14.98
2018-11-27T22:07:44.352Z,15.20
2018-11-27T22:10:14.627Z,14.00
2018-11-27T22:12:44.104Z,13.20
2018-11-27T22:15:44.430Z,12.93
2018-11-27T22:18:13.496Z,12.03
2018-11-27T22:20:41.869Z,11.93
2018-11-27T22:23:10.330Z,11.50
2018-11-27T22:25:38.629Z,13.08
2018-11-27T22:28:07.963Z,11.63
2018-11-27T22:30:36.275Z,13.78
2018-11-27T22:33:05.878Z,12.28
2018-11-27T22:35:34.202Z,13.25
2018-11-27T22:38:02.568Z,12.00
2018-11-27T22:40:30.888Z,12.45
2018-11-27T22:42:59.234Z,12.68
2018-11-27T22:45:36.696Z,13.53
2018-11-27T22:48:05.283Z,13.55
2018-11-27T22:50:33.633Z,12.10
2018-11-27T22:53:01.931Z,8.80
2018-11-27T22:55:30.317Z,11.80
2018-11-27T22:57:58.649Z,11.65
2018-11-27T23:00:44.381Z,11.88
2018-11-27T23:03:12.689Z,13.15
2018-11-27T23:05:41.049Z,12.53
2018-11-27T23:08:09.353Z,11.70
2018-11-27T23:10:38.607Z,11.60
2018-11-27T23:13:07.081Z,12.55
2018-11-27T23:15:35.399Z,11.90
2018-11-27T23:18:03.780Z,13.05
2018-11-27T23:20:32.193Z,11.57
2018-11-27T23:23:00.528Z,12.68
2018-11-27T23:25:28.854Z,13.25
2018-11-27T23:27:57.213Z,12.30
2018-11-27T23:30:26.179Z,13.88
2018-11-27T23:32:54.670Z,13.88
2018-11-27T23:35:23.006Z,13.60
2018-11-27T23:37:51.377Z,13.10
2018-11-27T23:40:20.778Z,15.40
2018-11-27T23:42:49.194Z,15.70
2018-11-27T23:45:20.991Z,14.07
2018-11-27T23:47:49.429Z,14.30
2018-11-27T23:50:18.752Z,15.72
2018-11-27T23:52:47.185Z,16.02
2018-11-27T23:55:16.229Z,16.23
2018-11-27T23:57:44.923Z,15.18
